createdAt,value
2017-11-06T00:00:54.791Z,100845.34
2017-11-06T00:03:22.037Z,100844.03
2017-11-06T00:05:49.581Z,100851.17
2017-11-06T00:08:16.852Z,100851.81
2017-11-06T00:10:44.390Z,100854.27
2017-11-06T00:13:11.775Z,100856.17
2017-11-06T00:15:40.205Z,100856.70
2017-11-06T00:18:07.373Z,100848.06
2017-11-06T00:20:34.542Z,100854.30
2017-11-06T00:23:01.722Z,100855.03
2017-11-06T00:25:29.248Z,100865.31
2017-11-06T00:27:57.929Z,100862.16
2017-11-06T00:30:25.129Z,100864.31
2017-11-06T00:32:52.309Z,100861.75
2017-11-06T00:35:19.501Z,100863.47
2017-11-06T00:37:46.956Z,100877.83
2017-11-06T00:40:14.136Z,100882.59
2017-11-06T00:42:41.311Z,100885.63
2017-11-06T00:45:08.500Z,100887.00
2017-11-06T00:47:36.899Z,100887.41
2017-11-06T00:50:04.166Z,100895.69
2017-11-06T00:52:31.398Z,100897.00
2017-11-06T00:54:58.584Z,100905.70
2017-11-06T00:57:26.000Z,100903.50
2017-11-06T00:59:53.512Z,100903.08
2017-11-06T01:02:20.696Z,100906.64
2017-11-06T01:04:48.248Z,100902.72
2017-11-06T01:07:15.436Z,100907.65
2017-11-06T01:09:42.613Z,100906.42
2017-11-06T01:12:09.826Z,100913.45
2017-11-06T01:14:37.593Z,100911.36
2017-11-06T01:17:04.779Z,100914.03
2017-11-06T01:19:32.308Z,100923.26
2017-11-06T01:21:59.649Z,100921.11
2017-11-06T01:24:27.422Z,100924.15
2017-11-06T01:26:54.620Z,100933.79
2017-11-06T01:29:22.096Z,100934.63
2017-11-06T01:31:49.269Z,100945.05
2017-11-06T01:34:16.629Z,100932.84
2017-11-06T01:36:43.802Z,100945.52
2017-11-06T01:39:11.243Z,100953.33
2017-11-06T01:44:06.713Z,100953.33
2017-11-06T01:46:33.918Z,100951.13
2017-11-06T01:49:05.470Z,100959.82
2017-11-06T01:51:32.642Z,100954.58
2017-11-06T01:53:59.782Z,100961.13
2017-11-06T01:56:26.926Z,100955.84
2017-11-06T01:58:54.092Z,100957.62
2017-11-06T02:01:21.264Z,100956.36
2017-11-06T02:03:48.440Z,100956.84
2017-11-06T02:06:15.591Z,100963.02
2017-11-06T02:08:42.737Z,100960.93
2017-11-06T02:11:09.874Z,100964.86
2017-11-06T02:13:37.037Z,100970.27
2017-11-06T02:16:04.197Z,100966.39
2017-11-06T02:18:31.362Z,100964.75
2017-11-06T02:20:58.506Z,100967.47
2017-11-06T02:23:25.646Z,100967.11
2017-11-06T02:25:52.792Z,100965.44
2017-11-06T02:28:19.950Z,100966.86
2017-11-06T02:30:47.095Z,100969.58
2017-11-06T02:33:14.262Z,100965.29
2017-11-06T02:35:41.441Z,100972.31
2017-11-06T02:38:08.603Z,100968.38
2017-11-06T02:40:35.760Z,100976.66
2017-11-06T02:43:02.894Z,100978.47
2017-11-06T02:45:30.056Z,100983.20
2017-11-06T02:47:57.197Z,100988.86
2017-11-06T02:50:24.353Z,100985.35
2017-11-06T02:52:51.512Z,100993.63
2017-11-06T02:57:45.452Z,101002.73
2017-11-06T03:00:12.603Z,101004.89
2017-11-06T03:02:39.738Z,101016.20
2017-11-06T03:05:06.879Z,101014.00
2017-11-06T03:07:34.030Z,101016.56
2017-11-06T03:10:01.196Z,101017.45
2017-11-06T03:12:28.364Z,101022.64
2017-11-06T03:14:55.502Z,101023.95
2017-11-06T03:17:22.655Z,101022.59
2017-11-06T03:19:49.798Z,101016.93
2017-11-06T03:22:16.956Z,101023.00
2017-11-06T03:24:44.099Z,101026.09
2017-11-06T03:27:11.273Z,101031.70
2017-11-06T03:29:38.448Z,101032.54
2017-11-06T03:32:05.595Z,101032.96
2017-11-06T03:34:32.748Z,101038.62
2017-11-06T03:36:59.905Z,101042.12
2017-11-06T03:39:27.069Z,101045.22
2017-11-06T03:41:54.241Z,101058.38
2017-11-06T03:44:22.152Z,101060.15
2017-11-06T03:46:49.295Z,101065.44
2017-11-06T03:49:16.448Z,101072.46
2017-11-06T03:51:43.595Z,101080.90
2017-11-06T03:54:10.745Z,101086.61
2017-11-06T03:56:37.901Z,101086.23
2017-11-06T03:59:05.059Z,101091.56
2017-11-06T04:01:32.222Z,101097.33
2017-11-06T04:03:59.393Z,101096.95
2017-11-06T04:06:26.535Z,101095.34
2017-11-06T04:08:53.681Z,101094.97
2017-11-06T04:11:20.838Z,101097.22
2017-11-06T04:13:47.980Z,101108.64
2017-11-06T04:16:15.150Z,101104.77
2017-11-06T04:18:42.308Z,101105.32
2017-11-06T04:21:09.451Z,101097.09
2017-11-06T04:23:36.609Z,101112.02
2017-11-06T04:26:03.750Z,101115.11
2017-11-06T04:28:30.894Z,101116.47
2017-11-06T04:30:58.069Z,101115.69
2017-11-06T04:33:25.223Z,101117.41
2017-11-06T04:35:52.382Z,101127.89
2017-11-06T04:38:19.549Z,101121.71
2017-11-06T04:40:46.737Z,101119.51
2017-11-06T04:43:15.637Z,101120.41
2017-11-06T04:45:42.791Z,101122.08
2017-11-06T04:48:09.930Z,101123.81
2017-11-06T04:50:37.104Z,101127.27
2017-11-06T04:53:04.264Z,101129.83
2017-11-06T04:55:31.408Z,101134.59
2017-11-06T04:57:58.560Z,101144.19
2017-11-06T05:00:25.716Z,101140.62
2017-11-06T05:02:52.882Z,101142.82
2017-11-06T05:05:20.044Z,101149.28
2017-11-06T05:07:47.221Z,101149.65
2017-11-06T05:10:14.368Z,101153.58
2017-11-06T05:12:41.514Z,101154.37
2017-11-06T05:15:08.668Z,101157.77
2017-11-06T05:17:35.832Z,101162.07
2017-11-06T05:20:02.989Z,101169.41
2017-11-06T05:22:30.130Z,101169.35
2017-11-06T05:24:57.313Z,101175.84
2017-11-06T05:27:25.213Z,101184.46
2017-11-06T05:29:52.372Z,101184.41
2017-11-06T05:32:19.527Z,101196.45
2017-11-06T05:34:46.680Z,101188.50
2017-11-06T05:37:13.865Z,101193.27
2017-11-06T05:39:41.017Z,101200.60
2017-11-06T05:42:08.212Z,101200.50
2017-11-06T05:44:35.383Z,101202.56
2017-11-06T05:47:02.544Z,101208.54
2017-11-06T05:49:29.713Z,101211.95
2017-11-06T05:51:56.881Z,101214.52
2017-11-06T05:54:24.789Z,101221.33
2017-11-06T05:56:51.964Z,101223.00
2017-11-06T05:59:19.269Z,101227.27
2017-11-06T06:01:46.433Z,101235.92
2017-11-06T06:04:13.597Z,101243.73
2017-11-06T06:06:40.742Z,101239.70
2017-11-06T06:09:07.895Z,101243.16
2017-11-06T06:11:35.051Z,101245.25
2017-11-06T06:14:02.213Z,101245.20
2017-11-06T06:16:29.397Z,101247.35
2017-11-06T06:18:56.580Z,101253.38
2017-11-06T06:21:23.738Z,101251.14
2017-11-06T06:23:50.912Z,101261.16
2017-11-06T06:26:18.071Z,101261.94
2017-11-06T06:28:45.223Z,101266.71
2017-11-06T06:31:12.378Z,101268.86
2017-11-06T06:33:39.537Z,101272.80
2017-11-06T06:36:06.678Z,101280.18
2017-11-06T06:38:33.822Z,101278.09
2017-11-06T06:41:00.993Z,101285.16
2017-11-06T06:43:28.156Z,101288.25
2017-11-06T06:45:55.321Z,101287.02
2017-11-06T06:48:22.494Z,101291.11
2017-11-06T06:50:49.743Z,101294.30
2017-11-06T06:53:16.898Z,101293.51
2017-11-06T06:55:44.097Z,101298.85
2017-11-06T06:58:11.241Z,101295.95
2017-11-06T07:00:38.382Z,101304.33
2017-11-06T07:03:05.540Z,101308.83
2017-11-06T07:05:32.697Z,101312.02
2017-11-06T07:07:59.885Z,101317.78
2017-11-06T07:10:27.030Z,101319.61
2017-11-06T07:12:54.169Z,101321.94
2017-11-06T07:15:21.325Z,101322.88
2017-11-06T07:17:48.461Z,101325.59
2017-11-06T07:20:15.621Z,101332.72
2017-11-06T07:22:42.790Z,101333.70
2017-11-06T07:25:10.153Z,101331.64
2017-11-06T07:27:37.307Z,101335.62
2017-11-06T07:30:04.465Z,101341.84
2017-11-06T07:32:31.602Z,101342.37
2017-11-06T07:34:58.758Z,101348.96
2017-11-06T07:37:26.186Z,101351.68
2017-11-06T07:39:54.095Z,101360.05
2017-11-06T07:42:21.433Z,101360.52
2017-11-06T07:44:48.603Z,101362.39
2017-11-06T07:47:15.756Z,101368.09
2017-11-06T07:49:42.899Z,101374.27
2017-11-06T07:52:10.057Z,101378.72
2017-11-06T07:54:37.217Z,101386.20
2017-11-06T07:57:04.362Z,101382.79
2017-11-06T07:59:31.517Z,101390.22
2017-11-06T08:01:58.653Z,101388.55
2017-11-06T08:04:26.072Z,101389.06
2017-11-06T08:06:53.983Z,101401.77
2017-11-06T08:09:21.117Z,101397.89
2017-11-06T08:11:48.266Z,101400.13
2017-11-06T08:14:15.419Z,101397.98
2017-11-06T08:16:42.572Z,101396.72
2017-11-06T08:19:09.724Z,101404.16
2017-11-06T08:21:36.874Z,101407.30
2017-11-06T08:24:04.048Z,101406.50
2017-11-06T08:26:31.206Z,101409.12
2017-11-06T08:28:58.410Z,101413.09
2017-11-06T08:31:25.558Z,101423.15
2017-11-06T08:33:52.703Z,101421.46
2017-11-06T08:36:19.856Z,101425.05
2017-11-06T08:38:47.017Z,101428.56
2017-11-06T08:41:14.177Z,101435.16
2017-11-06T08:43:41.313Z,101435.57
2017-11-06T08:46:08.460Z,101427.81
2017-11-06T08:48:35.636Z,101427.91
2017-11-06T08:51:02.779Z,101425.71
2017-11-06T08:53:29.936Z,101422.25
2017-11-06T08:55:57.104Z,101427.48
2017-11-06T08:58:24.242Z,101427.53
2017-11-06T09:00:51.401Z,101434.55
2017-11-06T09:03:18.557Z,101424.55
2017-11-06T09:05:45.707Z,101434.64
2017-11-06T09:08:12.847Z,101445.11
2017-11-06T09:10:40.036Z,101449.51
2017-11-06T09:13:07.942Z,101446.13
2017-11-06T09:15:35.101Z,101453.98
2017-11-06T09:18:02.255Z,101455.34
2017-11-06T09:20:29.394Z,101451.37
2017-11-06T09:22:56.542Z,101465.39
2017-11-06T09:25:23.710Z,101461.09
2017-11-06T09:27:50.845Z,101466.80
2017-11-06T09:30:18.004Z,101466.42
2017-11-06T09:32:45.147Z,101473.39
2017-11-06T09:35:12.291Z,101482.59
2017-11-06T09:37:39.606Z,101489.14
2017-11-06T09:40:07.518Z,101483.95
2017-11-06T09:45:01.458Z,101492.73
2017-11-06T09:47:28.620Z,101501.91
2017-11-06T09:49:55.776Z,101498.02
2017-11-06T09:54:49.701Z,101486.28
2017-11-06T09:57:16.852Z,101488.06
2017-11-06T09:59:43.996Z,101489.45
2017-11-06T10:02:11.138Z,101489.45
2017-11-06T10:04:38.290Z,101499.92
2017-11-06T10:07:05.463Z,101500.81
2017-11-06T10:09:32.615Z,101503.42
2017-11-06T10:11:59.775Z,101498.66
2017-11-06T10:14:26.931Z,101500.44
2017-11-06T10:16:54.860Z,101502.67
2017-11-06T10:19:22.002Z,101503.98
2017-11-06T10:21:49.165Z,101498.75
2017-11-06T10:24:16.323Z,101501.84
2017-11-06T10:26:43.492Z,101501.41
2017-11-06T10:29:10.633Z,101502.30
2017-11-06T10:31:37.781Z,101501.50
2017-11-06T10:34:04.943Z,101503.23
2017-11-06T10:36:32.109Z,101509.78
2017-11-06T10:38:59.271Z,101510.66
2017-11-06T10:41:27.182Z,101515.06
2017-11-06T10:43:54.372Z,101515.06
2017-11-06T10:46:21.518Z,101514.22
2017-11-06T10:48:48.674Z,101512.06
2017-11-06T10:51:15.838Z,101510.34
2017-11-06T10:53:43.003Z,101513.84
2017-11-06T10:56:10.170Z,101515.16
2017-11-06T10:58:37.334Z,101513.84
2017-11-06T11:01:04.487Z,101510.40
2017-11-06T11:03:31.657Z,101511.70
2017-11-06T11:05:58.817Z,101516.94
2017-11-06T11:08:25.983Z,101511.78
2017-11-06T11:10:53.160Z,101516.59
2017-11-06T11:13:21.066Z,101510.94
2017-11-06T11:15:48.215Z,101511.36
2017-11-06T11:18:16.396Z,101510.48
2017-11-06T11:20:43.562Z,101514.50
2017-11-06T11:23:10.725Z,101513.14
2017-11-06T11:25:37.881Z,101516.69
2017-11-06T11:28:05.039Z,101510.98
2017-11-06T11:30:32.955Z,101504.87
2017-11-06T11:33:00.102Z,101504.87
2017-11-06T11:35:27.250Z,101505.52
2017-11-06T11:37:54.429Z,101511.56
2017-11-06T11:40:21.605Z,101515.58
2017-11-06T11:42:48.763Z,101515.98
2017-11-06T11:45:15.907Z,101517.09
2017-11-06T11:47:43.058Z,101521.66
2017-11-06T11:50:10.217Z,101518.37
2017-11-06T11:52:37.380Z,101522.01
2017-11-06T11:55:04.553Z,101527.84
2017-11-06T11:57:31.710Z,101527.50
2017-11-06T11:59:58.855Z,101528.84
2017-11-06T12:02:25.998Z,101529.91
2017-11-06T12:04:53.164Z,101531.98
2017-11-06T12:07:20.323Z,101533.66
2017-11-06T12:09:47.484Z,101529.61
2017-11-06T12:12:14.644Z,101535.22
2017-11-06T12:14:41.794Z,101539.81
2017-11-06T12:17:08.942Z,101538.37
2017-11-06T12:19:36.082Z,101536.55
2017-11-06T12:22:03.241Z,101535.23
2017-11-06T12:24:31.348Z,101535.08
2017-11-06T12:26:58.531Z,101543.72
2017-11-06T12:29:25.708Z,101540.22
2017-11-06T12:31:52.862Z,101535.41
2017-11-06T12:34:20.107Z,101536.30
2017-11-06T12:36:47.263Z,101541.95
2017-11-06T12:39:14.424Z,101538.86
2017-11-06T12:41:41.764Z,101544.14
2017-11-06T12:44:08.909Z,101539.33
2017-11-06T12:46:36.518Z,101545.87
2017-11-06T12:49:04.286Z,101536.72
2017-11-06T12:51:31.477Z,101538.86
2017-11-06T12:53:58.882Z,101544.52
2017-11-06T12:56:26.464Z,101552.37
2017-11-06T12:58:53.916Z,101557.18
2017-11-06T13:01:21.379Z,101551.99
2017-11-06T13:03:48.579Z,101549.80
2017-11-06T13:06:15.744Z,101551.53
2017-11-06T13:08:43.674Z,101557.22
2017-11-06T13:11:10.856Z,101554.56
2017-11-06T13:13:38.022Z,101558.48
2017-11-06T13:16:05.957Z,101561.99
2017-11-06T13:18:33.118Z,101560.69
2017-11-06T13:21:00.425Z,101561.99
2017-11-06T13:23:27.625Z,101558.11
2017-11-06T13:25:54.945Z,101561.99
2017-11-06T13:28:22.180Z,101566.38
2017-11-06T13:30:49.329Z,101569.42
2017-11-06T13:33:16.474Z,101571.19
2017-11-06T13:35:44.247Z,101574.23
2017-11-06T13:38:11.416Z,101572.92
2017-11-06T13:40:38.578Z,101576.80
2017-11-06T13:43:05.726Z,101579.88
2017-11-06T13:45:32.885Z,101581.66
2017-11-06T13:48:00.035Z,101582.55
2017-11-06T13:50:27.193Z,101590.39
2017-11-06T13:52:54.808Z,101587.78
2017-11-06T13:55:22.576Z,101584.74
2017-11-06T13:57:49.746Z,101587.78
2017-11-06T14:00:16.977Z,101586.47
2017-11-06T14:02:44.123Z,101590.86
2017-11-06T14:05:11.268Z,101589.09
2017-11-06T14:07:38.429Z,101583.02
2017-11-06T14:10:05.616Z,101584.27
2017-11-06T14:12:32.783Z,101586.89
2017-11-06T14:14:59.934Z,101588.66
2017-11-06T14:17:27.311Z,101582.55
2017-11-06T14:19:55.246Z,101591.75
2017-11-06T14:22:22.861Z,101592.21
2017-11-06T14:24:50.484Z,101591.33
2017-11-06T14:27:17.761Z,101592.64
2017-11-06T14:29:45.520Z,101599.22
2017-11-06T14:32:13.445Z,101593.98
2017-11-06T14:34:40.586Z,101596.19
2017-11-06T14:37:07.756Z,101602.72
2017-11-06T14:39:34.899Z,101606.18
2017-11-06T14:42:02.045Z,101615.34
2017-11-06T14:44:29.203Z,101610.98
2017-11-06T14:46:56.364Z,101610.15
2017-11-06T14:49:24.381Z,101615.80
2017-11-06T14:51:51.581Z,101619.31
2017-11-06T14:54:18.721Z,101618.47
2017-11-06T14:56:45.889Z,101620.27
2017-11-06T14:59:13.048Z,101618.54
2017-11-06T15:01:40.216Z,101618.08
2017-11-06T15:04:07.376Z,101618.96
2017-11-06T15:06:34.532Z,101623.70
2017-11-06T15:09:01.701Z,101621.58
2017-11-06T15:11:28.837Z,101621.16
2017-11-06T15:13:56.258Z,101622.47
2017-11-06T15:16:23.464Z,101621.16
2017-11-06T15:18:50.634Z,101619.42
2017-11-06T15:21:17.813Z,101620.36
2017-11-06T15:23:45.757Z,101630.36
2017-11-06T15:26:13.818Z,101621.66
2017-11-06T15:28:40.971Z,101626.02
2017-11-06T15:31:08.125Z,101622.55
2017-11-06T15:33:35.297Z,101624.28
2017-11-06T15:36:02.438Z,101628.20
2017-11-06T15:38:29.735Z,101627.78
2017-11-06T15:40:56.906Z,101627.41
2017-11-06T15:43:24.046Z,101634.37
2017-11-06T15:45:51.205Z,101634.79
2017-11-06T15:48:18.349Z,101641.33
2017-11-06T15:50:45.508Z,101632.17
2017-11-06T15:53:12.683Z,101632.64
2017-11-06T15:55:40.098Z,101633.06
2017-11-06T15:58:07.247Z,101641.80
2017-11-06T16:00:34.391Z,101642.26
2017-11-06T16:03:01.535Z,101639.22
2017-11-06T16:05:29.231Z,101640.95
2017-11-06T16:07:56.452Z,101646.19
2017-11-06T16:10:23.615Z,101652.30
2017-11-06T16:12:50.787Z,101650.58
2017-11-06T16:15:17.950Z,101650.99
2017-11-06T16:17:45.109Z,101657.53
2017-11-06T16:20:12.261Z,101656.27
2017-11-06T16:22:39.427Z,101657.16
2017-11-06T16:25:06.570Z,101658.92
2017-11-06T16:27:33.724Z,101662.39
2017-11-06T16:30:00.874Z,101663.70
2017-11-06T16:32:28.029Z,101663.27
2017-11-06T16:34:55.165Z,101665.47
2017-11-06T16:37:22.553Z,101669.86
2017-11-06T16:39:49.709Z,101672.89
2017-11-06T16:42:16.863Z,101671.17
2017-11-06T16:44:44.231Z,101677.28
2017-11-06T16:47:11.397Z,101676.40
2017-11-06T16:49:38.557Z,101676.44
2017-11-06T16:52:05.713Z,101680.37
2017-11-06T16:54:32.913Z,101678.59
2017-11-06T16:57:00.085Z,101679.90
2017-11-06T16:59:27.240Z,101681.67
2017-11-06T17:01:54.382Z,101689.48
2017-11-06T17:04:21.525Z,101687.37
2017-11-06T17:06:48.689Z,101691.30
2017-11-06T17:12:13.402Z,101697.84
2017-11-06T17:14:40.556Z,101696.52
2017-11-06T17:17:07.981Z,101694.02
2017-11-06T17:19:35.141Z,101694.37
2017-11-06T17:22:02.294Z,101693.95
2017-11-06T17:24:29.460Z,101702.64
2017-11-06T17:26:56.629Z,101703.19
2017-11-06T17:29:23.779Z,101699.65
2017-11-06T17:31:50.947Z,101699.65
2017-11-06T17:34:18.873Z,101699.26
2017-11-06T17:36:46.040Z,101707.11
2017-11-06T17:39:13.186Z,101703.19
2017-11-06T17:41:40.326Z,101705.80
2017-11-06T17:44:07.478Z,101705.84
2017-11-06T17:46:34.637Z,101707.15
2017-11-06T17:49:01.804Z,101706.73
2017-11-06T17:51:28.961Z,101708.88
2017-11-06T17:53:56.119Z,101713.73
2017-11-06T17:56:23.317Z,101713.31
2017-11-06T17:58:50.482Z,101712.89
2017-11-06T18:01:17.635Z,101714.20
2017-11-06T18:03:44.770Z,101715.92
2017-11-06T18:06:11.933Z,101724.66
2017-11-06T18:08:39.078Z,101725.97
2017-11-06T18:11:06.240Z,101726.85
2017-11-06T18:13:33.401Z,101726.85
2017-11-06T18:16:00.565Z,101730.82
2017-11-06T18:18:27.715Z,101736.47
2017-11-06T18:20:54.880Z,101736.52
2017-11-06T18:23:22.031Z,101733.02
2017-11-06T18:25:49.418Z,101742.17
2017-11-06T18:28:16.590Z,101743.05
2017-11-06T18:30:43.738Z,101743.05
2017-11-06T18:33:10.892Z,101742.63
2017-11-06T18:35:38.087Z,101740.44
2017-11-06T18:38:05.256Z,101740.06
2017-11-06T18:40:32.625Z,101738.33
2017-11-06T18:43:00.121Z,101739.21
2017-11-06T18:45:27.297Z,101737.44
2017-11-06T18:47:54.449Z,101742.25
2017-11-06T18:50:21.633Z,101743.98
2017-11-06T18:52:48.795Z,101751.45
2017-11-06T18:55:16.530Z,101745.75
2017-11-06T18:57:45.579Z,101751.02
2017-11-06T19:00:13.579Z,101749.68
2017-11-06T19:02:43.121Z,101757.56
2017-11-06T19:05:11.270Z,101757.98
2017-11-06T19:07:39.573Z,101755.83
2017-11-06T19:10:07.842Z,101757.19
2017-11-06T19:12:36.976Z,101759.80
2017-11-06T19:15:04.706Z,101767.19
2017-11-06T19:17:32.300Z,101760.69
2017-11-06T19:19:59.930Z,101763.72
2017-11-06T19:22:27.936Z,101762.88
2017-11-06T19:24:56.742Z,101764.19
2017-11-06T19:27:24.144Z,101769.03
2017-11-06T19:29:52.272Z,101771.58
2017-11-06T19:32:19.478Z,101771.61
2017-11-06T19:34:48.182Z,101766.38
2017-11-06T19:37:15.429Z,101764.66
2017-11-06T19:39:42.967Z,101765.11
2017-11-06T19:42:10.154Z,101765.54
2017-11-06T19:44:37.331Z,101769.95
2017-11-06T19:47:04.715Z,101777.31
2017-11-06T19:49:31.880Z,101777.73
2017-11-06T19:51:59.048Z,101782.54
2017-11-06T19:54:26.214Z,101783.03
2017-11-06T19:56:53.361Z,101779.58
2017-11-06T19:59:21.089Z,101784.34
2017-11-06T20:01:48.851Z,101784.84
2017-11-06T20:04:16.040Z,101785.23
2017-11-06T20:06:44.522Z,101783.96
2017-11-06T20:09:12.545Z,101787.42
2017-11-06T20:11:39.738Z,101794.84
2017-11-06T20:14:07.746Z,101798.77
2017-11-06T20:16:35.132Z,101799.23
2017-11-06T20:19:03.630Z,101803.16
2017-11-06T20:21:31.979Z,101804.93
2017-11-06T20:24:00.032Z,101809.27
2017-11-06T20:26:27.288Z,101809.73
2017-11-06T20:28:54.570Z,101811.89
2017-11-06T20:31:22.339Z,101809.31
2017-11-06T20:33:49.569Z,101808.42
2017-11-06T20:36:16.758Z,101809.31
2017-11-06T20:38:44.099Z,101811.47
2017-11-06T20:41:12.220Z,101812.77
2017-11-06T20:43:40.168Z,101818.47
2017-11-06T20:46:07.323Z,101819.81
2017-11-06T20:48:34.763Z,101819.35
2017-11-06T20:51:01.939Z,101820.23
2017-11-06T20:53:29.823Z,101818.51
2017-11-06T20:55:57.004Z,101817.63
2017-11-06T20:58:24.534Z,101819.81
2017-11-06T21:00:53.168Z,101819.81
2017-11-06T21:03:20.356Z,101820.70
2017-11-06T21:05:47.849Z,101822.89
2017-11-06T21:08:16.650Z,101821.17
2017-11-06T21:10:43.844Z,101816.36
2017-11-06T21:13:11.117Z,101814.20
2017-11-06T21:15:38.285Z,101821.62
2017-11-06T21:18:06.049Z,101815.09
2017-11-06T21:20:33.318Z,101810.70
2017-11-06T21:23:00.477Z,101806.82
2017-11-06T21:25:27.908Z,101801.59
2017-11-06T21:27:55.395Z,101798.97
2017-11-06T21:30:28.664Z,101803.36
2017-11-06T21:32:55.853Z,101793.36
2017-11-06T21:35:23.003Z,101799.02
2017-11-06T21:37:50.538Z,101795.94
2017-11-06T21:40:17.723Z,101790.28
2017-11-06T21:42:44.890Z,101791.63
2017-11-06T21:45:12.060Z,101793.83
2017-11-06T21:47:39.219Z,101792.94
2017-11-06T21:50:06.422Z,101788.17
2017-11-06T21:52:33.593Z,101794.25
2017-11-06T21:55:00.765Z,101789.02
2017-11-06T21:57:28.674Z,101785.09
2017-11-06T21:59:55.832Z,101788.17
2017-11-06T22:02:22.993Z,101801.25
2017-11-06T22:04:50.142Z,101796.86
2017-11-06T22:07:18.448Z,101798.64
2017-11-06T22:09:45.594Z,101794.29
2017-11-06T22:12:12.738Z,101800.83
2017-11-06T22:14:39.901Z,101802.13
2017-11-06T22:17:07.045Z,101789.94
2017-11-06T22:19:34.190Z,101793.44
2017-11-06T22:22:01.330Z,101782.14
2017-11-06T22:24:28.475Z,101779.52
2017-11-06T22:26:55.641Z,101778.22
2017-11-06T22:29:22.823Z,101784.75
2017-11-06T22:31:50.248Z,101775.60
2017-11-06T22:34:17.642Z,101777.75
2017-11-06T22:36:44.800Z,101779.48
2017-11-06T22:39:11.943Z,101767.29
2017-11-06T22:41:39.795Z,101772.94
2017-11-06T22:44:06.942Z,101774.67
2017-11-06T22:46:34.094Z,101768.59
2017-11-06T22:49:01.278Z,101767.29
2017-11-06T22:51:28.472Z,101775.56
2017-11-06T22:53:55.637Z,101772.05
2017-11-06T22:56:22.796Z,101776.44
2017-11-06T22:58:49.948Z,101779.40
2017-11-06T23:01:17.093Z,101772.78
2017-11-06T23:03:44.254Z,101774.47
2017-11-06T23:06:11.404Z,101765.73
2017-11-06T23:08:38.547Z,101768.77
2017-11-06T23:11:05.690Z,101772.23
2017-11-06T23:13:32.870Z,101767.42
2017-11-06T23:16:00.041Z,101763.92
2017-11-06T23:18:27.205Z,101764.30
2017-11-06T23:20:54.347Z,101763.81
2017-11-06T23:23:21.503Z,101762.45
2017-11-06T23:25:48.669Z,101761.95
2017-11-06T23:28:15.823Z,101762.37
2017-11-06T23:30:42.985Z,101753.14
2017-11-06T23:33:10.148Z,101760.94
2017-11-06T23:35:38.078Z,101746.89
2017-11-06T23:38:05.222Z,101757.78
2017-11-06T23:40:32.370Z,101754.83
2017-11-06T23:42:59.521Z,101754.02
2017-11-06T23:45:26.700Z,101759.30
2017-11-06T23:47:53.846Z,101759.77
2017-11-06T23:50:21.133Z,101755.03
2017-11-06T23:52:50.141Z,101755.50
2017-11-06T23:55:17.609Z,101753.00
2017-11-06T23:57:44.781Z,101738.15
